Time;durP1;ratioP1;P1;durP2;ratioP2;P2;SDS_P1;SDS_P2;PMS_P1;PMS_P2;Temp;Humidity;BMP_temperature;BMP_pressure;BME280_temperature;BME280_humidity;BME280_pressure;Samples;Min_cycle;Max_cycle;Signal;HPM_P1;HPM_P2
2021/01/19 00:00:36;;;;;;;2.10;1.60;;;;;;;10.93;71.37;98628.50;4982476;28;20057;-79
2021/01/19 00:03:03;;;;;;;1.48;1.38;;;;;;;10.81;71.84;98628.81;4970825;28;20519;-79
2021/01/19 00:05:30;;;;;;;1.60;1.48;;;;;;;10.87;71.37;98623.44;4993338;28;20060;-79
2021/01/19 00:07:56;;;;;;;1.60;1.50;;;;;;;10.89;72.26;98619.88;4970383;28;20071;-78
2021/01/19 00:10:23;;;;;;;1.58;1.20;;;;;;;11.19;70.86;98622.56;4988823;28;20046;-79
2021/01/19 00:12:49;;;;;;;1.30;1.20;;;;;;;11.12;70.83;98611.44;5024114;28;20133;-78
2021/01/19 00:15:18;;;;;;;3.50;1.30;;;;;;;11.18;71.15;98610.38;5038518;28;20536;-79
2021/01/19 00:17:45;;;;;;;2.08;1.30;;;;;;;11.25;70.88;98602.34;5016832;28;20127;-80
2021/01/19 00:20:13;;;;;;;1.30;1.05;;;;;;;11.15;71.59;98589.56;5012348;28;20077;-80
2021/01/19 00:22:39;;;;;;;2.35;1.30;;;;;;;10.89;71.80;98582.41;5040590;28;20040;-79
2021/01/19 00:25:08;;;;;;;0.75;0.75;;;;;;;10.87;72.06;98573.78;5013283;28;20645;-81
2021/01/19 00:27:35;;;;;;;1.10;0.80;;;;;;;11.02;72.33;98575.13;4997566;28;20057;-80
2021/01/19 00:30:04;;;;;;;1.10;0.80;;;;;;;11.01;72.25;98555.97;5029245;28;20228;-80
2021/01/19 00:32:31;;;;;;;0.88;0.80;;;;;;;10.98;72.70;98545.63;5020109;28;20057;-78
2021/01/19 00:34:57;;;;;;;1.00;0.90;;;;;;;10.49;74.39;98535.59;5022055;28;20091;-79
2021/01/19 00:37:24;;;;;;;1.10;1.00;;;;;;;11.01;72.65;98537.69;4998178;28;20154;-79
2021/01/19 00:39:51;;;;;;;1.25;0.95;;;;;;;10.81;72.96;98527.78;4981342;28;20057;-79
2021/01/19 00:42:18;;;;;;;2.00;0.77;;;;;;;11.05;72.20;98518.41;4986596;28;20101;-80
2021/01/19 00:44:48;;;;;;;1.25;1.08;;;;;;;10.99;72.91;98515.94;4992586;28;20139;-80
2021/01/19 00:47:14;;;;;;;2.15;1.50;;;;;;;11.19;71.91;98518.00;4946501;28;20137;-79
2021/01/19 00:49:42;;;;;;;1.45;1.30;;;;;;;11.11;72.34;98501.69;4972454;28;20476;-80
2021/01/19 00:52:08;;;;;;;2.25;1.50;;;;;;;11.19;72.92;98504.94;4930606;28;20554;-79
2021/01/19 00:54:38;;;;;;;1.73;1.38;;;;;;;11.29;72.33;98498.53;4962931;28;20160;-79
2021/01/19 00:57:05;;;;;;;1.95;1.65;;;;;;;10.86;74.19;98496.28;4942166;28;20062;-79
2021/01/19 00:59:31;;;;;;;4.32;1.48;;;;;;;11.32;72.48;98482.75;4939864;28;20057;-78
2021/01/19 01:01:58;;;;;;;2.63;1.65;;;;;;;11.43;71.93;98474.59;4944440;28;20065;-80
2021/01/19 01:04:26;;;;;;;1.45;1.35;;;;;;;11.31;71.87;98465.38;4950507;28;20118;-79
2021/01/19 01:06:55;;;;;;;1.58;1.48;;;;;;;11.18;72.43;98451.78;4972433;28;20062;-79
2021/01/19 01:09:21;;;;;;;1.98;1.75;;;;;;;11.34;72.53;98453.06;4993910;28;20154;-79
2021/01/19 01:11:48;;;;;;;4.03;1.95;;;;;;;11.44;72.12;98456.25;4964943;28;20415;-79
2021/01/19 01:14:15;;;;;;;2.30;2.10;;;;;;;11.97;70.52;98451.13;4964137;28;20536;-79
2021/01/19 01:16:42;;;;;;;2.05;1.90;;;;;;;11.83;70.59;98432.38;4986393;28;20065;-81
2021/01/19 01:19:09;;;;;;;2.97;2.55;;;;;;;11.53;71.71;98436.78;5021206;28;20063;-78
2021/01/19 01:21:41;;;;;;;2.38;2.17;;;;;;;11.63;71.60;98420.78;5024056;28;20056;-80
2021/01/19 01:24:08;;;;;;;2.90;2.60;;;;;;;11.59;71.72;98418.31;5022869;28;23690;-79
2021/01/19 01:26:36;;;;;;;5.07;2.95;;;;;;;12.02;70.35;98413.41;5041207;28;20140;-79
2021/01/19 01:29:06;;;;;;;3.45;3.05;;;;;;;11.72;71.19;98406.53;5038320;28;20049;-80
2021/01/19 01:31:36;;;;;;;3.58;3.28;;;;;;;11.76;71.16;98410.78;5042647;28;20049;-79
2021/01/19 01:34:05;;;;;;;3.65;3.35;;;;;;;11.90;71.33;98392.00;5056714;28;20448;-79
2021/01/19 01:36:40;;;;;;;4.30;3.90;;;;;;;12.03;70.94;98398.56;5042933;28;20052;-78
2021/01/19 01:39:07;;;;;;;4.75;4.22;;;;;;;12.28;70.00;98390.72;5021467;28;20490;-79
2021/01/19 01:41:33;;;;;;;4.88;4.43;;;;;;;11.84;71.73;98381.78;5062436;28;20048;-79
2021/01/19 01:44:03;;;;;;;4.00;3.70;;;;;;;12.29;69.80;98369.72;5042661;28;20348;-79
2021/01/19 01:46:31;;;;;;;4.03;3.63;;;;;;;12.14;70.30;98378.94;5033339;28;20037;-81
2021/01/19 01:48:57;;;;;;;3.42;3.13;;;;;;;12.19;70.53;98369.16;5028343;28;20040;-79
2021/01/19 01:51:25;;;;;;;5.75;2.95;;;;;;;12.31;69.69;98359.19;5043184;28;20120;-80
2021/01/19 01:53:51;;;;;;;2.67;2.28;;;;;;;12.10;70.52;98356.41;5062856;28;20059;-79
2021/01/19 01:56:19;;;;;;;2.13;1.98;;;;;;;12.38;69.74;98356.28;5013989;28;20475;-80
2021/01/19 01:58:46;;;;;;;1.77;1.67;;;;;;;12.32;70.27;98353.91;5061707;28;20076;-80
2021/01/19 02:01:14;;;;;;;1.77;1.67;;;;;;;12.44;69.72;98353.44;5026993;28;20049;-78
2021/01/19 02:03:42;;;;;;;1.40;1.30;;;;;;;12.54;69.44;98338.25;5038682;28;20098;-79
2021/01/19 02:06:09;;;;;;;1.00;1.00;;;;;;;12.37;70.15;98341.50;5041202;28;20045;-79
2021/01/19 02:08:54;;;;;;;1.00;1.00;;;;;;;12.09;70.69;98332.88;5065107;28;20139;-80
2021/01/19 02:11:47;;;;;;;0.80;0.73;;;;;;;12.36;69.65;98328.44;5058694;28;20124;-79
2021/01/19 02:14:36;;;;;;;1.92;0.52;;;;;;;12.28;69.92;98320.03;5022062;28;20430;-79
2021/01/19 02:17:24;;;;;;;0.40;0.40;;;;;;;12.40;69.93;98319.56;5061411;28;20040;-78
2021/01/19 02:20:19;;;;;;;0.00;0.00;;;;;;;12.57;69.40;98314.53;4990489;28;20052;-79
2021/01/19 02:23:22;;;;;;;0.80;0.17;;;;;;;12.28;70.14;98299.06;5065201;28;20044;-79
2021/01/19 02:26:15;;;;;;;0.00;0.00;;;;;;;12.03;70.53;98302.56;5029512;28;20518;-81
2021/01/19 02:28:51;;;;;;;0.32;0.20;;;;;;;12.21;69.86;98294.06;5049817;28;20051;-79
2021/01/19 02:31:40;;;;;;;0.20;0.10;;;;;;;12.18;69.98;98291.53;5036426;28;20048;-78
2021/01/19 02:34:24;;;;;;;0.03;0.03;;;;;;;12.22;69.76;98281.81;4996652;28;20063;-79
2021/01/19 02:37:02;;;;;;;0.20;0.13;;;;;;;12.08;70.03;98278.84;5029501;28;20049;-79
2021/01/19 02:39:37;;;;;;;0.10;0.10;;;;;;;12.41;68.88;98274.13;5050322;28;20135;-78
2021/01/19 02:42:11;;;;;;;0.20;0.15;;;;;;;12.18;69.59;98270.59;5037320;28;20251;-78
2021/01/19 02:44:44;;;;;;;0.13;0.10;;;;;;;12.40;68.64;98267.19;5031966;28;20048;-79
2021/01/19 02:47:13;;;;;;;5.00;0.10;;;;;;;12.79;67.25;98268.28;5044000;28;20044;-80
2021/01/19 02:49:42;;;;;;;0.13;0.13;;;;;;;12.73;67.71;98275.53;5049038;28;20127;-78
2021/01/19 02:52:10;;;;;;;0.10;0.10;;;;;;;12.38;68.66;98266.38;5063807;28;20101;-79
2021/01/19 02:54:38;;;;;;;0.30;0.20;;;;;;;12.48;68.15;98268.59;5022233;28;20060;-78
2021/01/19 02:57:19;;;;;;;1.45;0.10;;;;;;;12.26;68.63;98267.72;5058444;28;20139;-78
2021/01/19 02:59:56;;;;;;;0.15;0.15;;;;;;;12.70;67.57;98265.19;5058706;28;20055;-78
2021/01/19 03:02:29;;;;;;;0.85;0.10;;;;;;;12.70;67.34;98266.03;5012924;28;20053;-77
2021/01/19 03:04:58;;;;;;;0.32;0.13;;;;;;;12.78;67.58;98258.72;5034256;28;20093;-78
2021/01/19 03:07:30;;;;;;;0.32;0.30;;;;;;;12.09;69.92;98265.69;5061471;28;20115;-79
2021/01/19 03:10:00;;;;;;;0.20;0.20;;;;;;;12.07;70.15;98264.06;5038970;28;20056;-78
2021/01/19 03:12:28;;;;;;;0.50;0.20;;;;;;;12.60;68.77;98267.28;5059761;28;20076;-78
2021/01/19 03:14:54;;;;;;;0.28;0.28;;;;;;;12.44;69.36;98271.41;5039566;28;20068;-78
2021/01/19 03:17:21;;;;;;;0.68;0.20;;;;;;;12.33;69.55;98261.31;5045017;28;20056;-78
2021/01/19 03:19:49;;;;;;;0.10;0.10;;;;;;;12.78;68.42;98256.09;5063430;28;20414;-78
2021/01/19 03:22:16;;;;;;;2.17;0.35;;;;;;;13.02;67.70;98254.28;5067478;28;20490;-78
2021/01/19 03:24:42;;;;;;;0.40;0.30;;;;;;;12.84;68.07;98248.00;5008085;28;20067;-78
2021/01/19 03:27:09;;;;;;;0.28;0.28;;;;;;;12.75;68.38;98247.50;5022916;28;20044;-78
2021/01/19 03:29:35;;;;;;;1.02;0.30;;;;;;;13.14;66.91;98248.53;5030289;28;20141;-78
2021/01/19 03:32:03;;;;;;;0.82;0.50;;;;;;;13.03;67.30;98238.50;5030639;28;20049;-78
2021/01/19 03:34:30;;;;;;;0.40;0.30;;;;;;;13.16;67.16;98249.34;5034821;28;20049;-79
2021/01/19 03:36:57;;;;;;;1.13;0.38;;;;;;;12.74;67.57;98244.03;5032224;28;20049;-78
2021/01/19 03:39:23;;;;;;;0.55;0.40;;;;;;;12.96;67.30;98244.03;5037478;28;20528;-78
2021/01/19 03:41:50;;;;;;;0.43;0.30;;;;;;;13.35;66.28;98241.56;5020049;28;20113;-78
2021/01/19 03:44:16;;;;;;;0.50;0.40;;;;;;;13.43;65.98;98248.19;5019404;28;20056;-79
2021/01/19 03:46:43;;;;;;;0.93;0.40;;;;;;;13.47;65.79;98244.56;5019257;28;20053;-79
2021/01/19 03:49:09;;;;;;;0.75;0.32;;;;;;;13.52;65.69;98242.56;5034838;28;20068;-78
2021/01/19 03:51:36;;;;;;;1.42;0.30;;;;;;;13.64;65.24;98250.84;5017131;28;20041;-78
2021/01/19 03:54:02;;;;;;;1.30;0.40;;;;;;;13.31;66.15;98247.88;5018407;28;20045;-79
2021/01/19 03:56:29;;;;;;;0.90;0.50;;;;;;;13.53;65.43;98246.91;5015456;28;20133;-78
2021/01/19 03:58:55;;;;;;;0.40;0.40;;;;;;;13.51;65.25;98240.88;5022673;28;20073;-78
2021/01/19 04:01:21;;;;;;;0.95;0.40;;;;;;;13.45;65.23;98240.28;5002304;28;20053;-78
2021/01/19 04:03:48;;;;;;;0.50;0.40;;;;;;;13.48;65.21;98248.00;5020096;28;20060;-78
2021/01/19 04:06:15;;;;;;;0.40;0.40;;;;;;;13.44;65.51;98246.44;5013968;28;20079;-78
2021/01/19 04:08:41;;;;;;;0.38;0.38;;;;;;;13.08;66.39;98239.16;5020697;28;20057;-79
2021/01/19 04:11:08;;;;;;;0.40;0.40;;;;;;;12.81;66.65;98237.63;5019097;28;20055;-79
2021/01/19 04:13:35;;;;;;;0.75;0.60;;;;;;;12.81;67.21;98232.38;5025144;28;20059;-79
2021/01/19 04:16:03;;;;;;;0.70;0.70;;;;;;;12.94;66.54;98241.47;5019301;28;20056;-79
2021/01/19 04:18:30;;;;;;;0.93;0.45;;;;;;;13.02;66.65;98241.16;5019176;28;20131;-78
2021/01/19 04:20:56;;;;;;;1.10;0.70;;;;;;;12.88;66.76;98241.72;5034653;28;23734;-79
2021/01/19 04:23:22;;;;;;;0.98;0.50;;;;;;;12.77;66.47;98243.91;5040463;28;20051;-78
2021/01/19 04:25:50;;;;;;;0.63;0.63;;;;;;;12.92;66.49;98247.69;5035831;28;20060;-78
2021/01/19 04:28:17;;;;;;;3.22;0.60;;;;;;;12.75;67.03;98237.88;5038581;28;20143;-78
2021/01/19 04:30:44;;;;;;;0.45;0.45;;;;;;;13.10;65.98;98234.69;5058270;28;20101;-78
2021/01/19 04:33:11;;;;;;;0.63;0.52;;;;;;;13.08;65.61;98231.28;5038503;28;20059;-79
2021/01/19 04:35:42;;;;;;;2.08;0.57;;;;;;;12.72;65.98;98240.59;5040362;28;20060;-78
2021/01/19 04:38:10;;;;;;;0.50;0.50;;;;;;;12.48;67.25;98231.06;5029368;28;20059;-78
2021/01/19 04:40:37;;;;;;;0.30;0.30;;;;;;;12.68;66.68;98231.16;5061676;28;20060;-79
2021/01/19 04:43:04;;;;;;;0.40;0.40;;;;;;;12.22;67.73;98225.06;5054536;28;20044;-78
2021/01/19 04:45:34;;;;;;;0.50;0.50;;;;;;;12.47;67.00;98222.34;5040646;28;20449;-79
2021/01/19 04:48:01;;;;;;;0.20;0.20;;;;;;;12.37;67.38;98230.66;5053307;28;20052;-78
2021/01/19 04:50:31;;;;;;;0.38;0.38;;;;;;;12.03;67.49;98231.91;5026288;28;20071;-78
2021/01/19 04:53:01;;;;;;;1.95;0.32;;;;;;;12.34;67.29;98231.59;5056494;28;20052;-79
2021/01/19 04:55:28;;;;;;;0.40;0.40;;;;;;;12.45;66.25;98231.19;5043787;28;20052;-79
2021/01/19 04:57:59;;;;;;;0.25;0.25;;;;;;;12.21;66.72;98235.59;5057539;28;20136;-78
2021/01/19 05:00:31;;;;;;;0.28;0.28;;;;;;;12.17;66.94;98232.25;5041124;28;20377;-78
2021/01/19 05:03:26;;;;;;;0.38;0.38;;;;;;;12.37;66.28;98235.88;5041404;28;21517;-78
2021/01/19 05:06:00;;;;;;;0.25;0.25;;;;;;;11.70;68.69;98233.09;5057561;28;20053;-78
2021/01/19 05:08:45;;;;;;;0.70;0.30;;;;;;;12.51;66.00;98233.59;5035835;28;20049;-78
2021/01/19 05:11:24;;;;;;;0.30;0.30;;;;;;;12.44;65.92;98222.50;5038415;28;20048;-79
2021/01/19 05:13:53;;;;;;;0.30;0.30;;;;;;;12.17;66.63;98234.00;5020508;28;20048;-78
2021/01/19 05:16:24;;;;;;;0.20;0.20;;;;;;;12.66;65.23;98236.44;5018207;28;20523;-79
2021/01/19 05:18:51;;;;;;;0.30;0.30;;;;;;;12.50;65.77;98232.75;5013227;28;20134;-78
2021/01/19 05:21:17;;;;;;;1.00;0.30;;;;;;;12.06;67.11;98223.94;5008509;28;20760;-78
2021/01/19 05:23:44;;;;;;;0.38;0.38;;;;;;;12.43;65.53;98230.41;5015212;28;20107;-79
2021/01/19 05:26:14;;;;;;;0.20;0.20;;;;;;;12.54;65.51;98228.22;5029558;28;20068;-80
2021/01/19 05:28:43;;;;;;;0.17;0.17;;;;;;;12.46;65.32;98225.06;5013803;28;20053;-78
2021/01/19 05:31:15;;;;;;;0.38;0.25;;;;;;;12.78;64.76;98231.66;5018224;28;20046;-78
2021/01/19 05:33:43;;;;;;;0.20;0.20;;;;;;;12.48;66.02;98233.69;4989844;28;20079;-79
2021/01/19 05:36:11;;;;;;;3.17;0.30;;;;;;;12.15;66.56;98228.81;5013003;28;20063;-78
2021/01/19 05:39:06;;;;;;;0.35;0.35;;;;;;;12.18;66.72;98231.31;5017185;28;20057;-79
2021/01/19 05:41:40;;;;;;;0.10;0.10;;;;;;;12.51;65.85;98223.97;4983442;28;20153;-78
2021/01/19 05:44:30;;;;;;;0.52;0.30;;;;;;;12.07;67.43;98230.03;5007159;28;20060;-77
2021/01/19 05:46:59;;;;;;;0.20;0.20;;;;;;;12.27;66.89;98222.28;5026484;28;20463;-78
2021/01/19 05:49:42;;;;;;;1.17;0.50;;;;;;;12.42;66.42;98223.47;5029743;28;20045;-79
2021/01/19 05:52:13;;;;;;;0.20;0.20;;;;;;;11.97;67.59;98220.78;5045972;28;20055;-78
2021/01/19 05:54:43;;;;;;;0.70;0.40;;;;;;;12.16;67.33;98222.69;5059539;28;20057;-78
2021/01/19 05:57:29;;;;;;;0.35;0.30;;;;;;;12.08;67.55;98216.03;5045838;28;20052;-78
2021/01/19 06:00:03;;;;;;;0.38;0.38;;;;;;;11.74;67.67;98225.09;5039349;28;20057;-78
2021/01/19 06:02:38;;;;;;;0.38;0.30;;;;;;;12.19;67.71;98219.94;5044656;28;20470;-78
2021/01/19 06:05:13;;;;;;;0.57;0.30;;;;;;;12.16;67.56;98214.81;5062014;28;20062;-77
2021/01/19 06:07:42;;;;;;;0.30;0.30;;;;;;;12.00;67.74;98211.06;5024542;28;20388;-78
2021/01/19 06:10:17;;;;;;;2.47;0.40;;;;;;;11.73;68.49;98206.84;5061234;28;20044;-79
2021/01/19 06:12:44;;;;;;;0.20;0.20;;;;;;;11.92;68.42;98213.13;5023802;28;20048;-79
2021/01/19 06:15:11;;;;;;;0.32;0.32;;;;;;;12.13;67.31;98212.31;5029693;28;20392;-79
2021/01/19 06:17:38;;;;;;;0.55;0.40;;;;;;;11.93;68.36;98212.22;5032318;28;20060;-79
2021/01/19 06:20:07;;;;;;;0.28;0.22;;;;;;;11.73;68.34;98205.06;5036526;28;20098;-79
2021/01/19 06:22:35;;;;;;;0.98;0.43;;;;;;;11.93;68.07;98209.59;5050692;28;20542;-78
2021/01/19 06:25:04;;;;;;;2.05;0.50;;;;;;;12.08;67.31;98198.56;5046154;28;20051;-79
2021/01/19 06:27:33;;;;;;;0.20;0.20;;;;;;;12.20;67.11;98210.31;5050884;28;20063;-79
2021/01/19 06:29:59;;;;;;;0.25;0.25;;;;;;;12.06;67.54;98205.59;5043115;28;20076;-78
2021/01/19 06:32:31;;;;;;;0.30;0.30;;;;;;;11.96;67.66;98206.84;5060877;28;20138;-79
2021/01/19 06:35:19;;;;;;;0.20;0.20;;;;;;;11.69;68.34;98205.22;5059596;28;21494;-79
2021/01/19 06:37:49;;;;;;;4.10;0.30;;;;;;;11.99;67.94;98206.72;5028962;28;20067;-79
2021/01/19 06:40:19;;;;;;;0.40;0.40;;;;;;;11.90;68.69;98198.34;5045050;28;20398;-78
2021/01/19 06:42:58;;;;;;;0.77;0.45;;;;;;;11.65;68.97;98207.09;5026132;28;20114;-79
2021/01/19 06:45:25;;;;;;;4.03;0.60;;;;;;;11.85;69.32;98195.06;5035225;28;20145;-78
2021/01/19 06:47:55;;;;;;;0.68;0.57;;;;;;;11.50;70.04;98199.78;5037232;28;20053;-78
2021/01/19 06:50:23;;;;;;;1.08;0.50;;;;;;;11.37;70.60;98186.25;5031891;28;20127;-78
2021/01/19 06:53:08;;;;;;;0.63;0.50;;;;;;;11.67;69.58;98186.94;5030366;28;20457;-79
2021/01/19 06:55:39;;;;;;;0.47;0.30;;;;;;;11.66;69.67;98190.47;5021340;28;20052;-78
2021/01/19 06:58:43;;;;;;;2.28;1.33;;;;;;;11.55;69.41;98187.38;5030942;28;20061;-77
2021/01/19 07:01:15;;;;;;;1.10;0.40;;;;;;;11.34;70.40;98190.75;5054958;28;20047;-79
2021/01/19 07:03:42;;;;;;;0.47;0.40;;;;;;;11.53;69.31;98196.19;5040179;28;20138;-80
2021/01/19 07:06:12;;;;;;;0.70;0.40;;;;;;;11.41;69.68;98192.25;5064385;28;20122;-78
2021/01/19 07:09:00;;;;;;;0.60;0.30;;;;;;;10.98;71.34;98182.41;5023419;28;20047;-79
2021/01/19 07:11:35;;;;;;;0.75;0.45;;;;;;;11.82;68.61;98195.19;5066478;28;20071;-79
2021/01/19 07:14:14;;;;;;;1.85;0.20;;;;;;;11.43;69.81;98198.25;5057830;28;20061;-79
2021/01/19 07:16:53;;;;;;;0.30;0.20;;;;;;;11.34;69.67;98195.97;5046591;28;20071;-80
2021/01/19 07:19:28;;;;;;;1.00;0.32;;;;;;;11.61;69.66;98197.63;5066044;28;20055;-80
2021/01/19 07:22:05;;;;;;;0.95;0.45;;;;;;;11.42;70.24;98198.31;5038474;28;20056;-79
2021/01/19 07:24:41;;;;;;;0.93;0.38;;;;;;;11.51;70.17;98190.16;5045487;28;20041;-78
2021/01/19 07:27:11;;;;;;;0.30;0.30;;;;;;;11.56;70.19;98181.22;5057707;28;20560;-78
2021/01/19 07:29:37;;;;;;;2.42;0.43;;;;;;;11.41;70.50;98186.16;5038794;28;20053;-80
2021/01/19 07:32:11;;;;;;;4.93;0.28;;;;;;;11.57;69.96;98177.72;5043720;28;20047;-79
2021/01/19 07:34:39;;;;;;;2.60;0.20;;;;;;;11.37;70.66;98172.31;5017613;28;20037;-80
2021/01/19 07:37:07;;;;;;;1.75;0.68;;;;;;;11.61;70.13;98171.47;5055771;28;20040;-79
2021/01/19 07:39:36;;;;;;;4.70;0.45;;;;;;;11.57;70.01;98166.38;5041484;28;20053;-78
2021/01/19 07:42:14;;;;;;;0.75;0.25;;;;;;;11.50;70.45;98168.38;5025246;28;20329;-78
2021/01/19 07:44:42;;;;;;;1.20;0.30;;;;;;;11.68;69.23;98159.88;5034606;28;20040;-79
2021/01/19 07:47:12;;;;;;;0.52;0.30;;;;;;;11.72;69.33;98163.22;5042536;28;20075;-79
2021/01/19 07:49:39;;;;;;;0.52;0.40;;;;;;;11.44;70.40;98158.13;5041256;28;20104;-79
2021/01/19 07:52:11;;;;;;;0.93;0.30;;;;;;;11.69;69.10;98160.72;5047137;28;20041;-80
2021/01/19 07:54:39;;;;;;;4.03;0.65;;;;;;;11.41;70.34;98160.88;5027731;28;20421;-80
2021/01/19 07:57:13;;;;;;;0.57;0.30;;;;;;;11.29;70.65;98164.75;5053404;28;20522;-80
2021/01/19 07:59:44;;;;;;;2.08;0.85;;;;;;;11.35;70.74;98167.16;5039265;28;20052;-79
2021/01/19 08:02:25;;;;;;;1.73;0.43;;;;;;;11.64;69.39;98168.75;5020685;28;20061;-80
2021/01/19 08:05:05;;;;;;;3.57;0.40;;;;;;;11.96;68.52;98179.81;5015554;28;20053;-79
2021/01/19 08:07:51;;;;;;;3.85;0.63;;;;;;;11.56;70.23;98178.63;5004012;28;20323;-80
2021/01/19 08:10:19;;;;;;;2.33;0.20;;;;;;;11.92;68.67;98183.47;5002640;28;20145;-80
2021/01/19 08:12:52;;;;;;;0.82;0.20;;;;;;;11.97;68.38;98186.78;5019009;28;20073;-78
2021/01/19 08:15:20;;;;;;;0.55;0.32;;;;;;;11.92;68.32;98184.31;4986153;28;20085;-79
2021/01/19 08:17:52;;;;;;;2.30;0.20;;;;;;;11.74;68.52;98183.25;5008670;28;20046;-80
2021/01/19 08:20:29;;;;;;;2.10;0.40;;;;;;;12.05;67.94;98184.72;5003235;28;20132;-79
2021/01/19 08:23:12;;;;;;;0.50;0.40;;;;;;;11.91;68.28;98176.53;5007176;28;20049;-80
2021/01/19 08:25:40;;;;;;;1.20;0.28;;;;;;;11.97;68.54;98174.53;5000001;28;20168;-78
2021/01/19 08:28:08;;;;;;;0.50;0.30;;;;;;;12.13;68.09;98180.06;5002426;28;20045;-79
2021/01/19 08:30:38;;;;;;;3.00;0.35;;;;;;;11.49;70.26;98184.13;5006598;28;20053;-78
2021/01/19 08:33:06;;;;;;;0.20;0.10;;;;;;;11.84;68.81;98178.53;5035052;28;20041;-77
2021/01/19 08:35:38;;;;;;;0.20;0.20;;;;;;;12.01;68.51;98181.38;5046350;28;20044;-78
2021/01/19 08:38:10;;;;;;;1.35;0.30;;;;;;;11.78;69.29;98177.00;5022948;28;20146;-78
2021/01/19 08:40:37;;;;;;;0.22;0.15;;;;;;;12.21;68.17;98171.00;5043894;28;20087;-79
2021/01/19 08:43:05;;;;;;;0.50;0.30;;;;;;;12.42;67.01;98176.31;5043955;28;20415;-78
2021/01/19 08:45:39;;;;;;;0.13;0.13;;;;;;;12.69;66.59;98172.63;5003277;28;20119;-79
2021/01/19 08:48:08;;;;;;;0.30;0.17;;;;;;;12.62;66.69;98173.75;5034661;28;20461;-78
2021/01/19 08:50:41;;;;;;;0.20;0.20;;;;;;;12.55;66.13;98178.41;5039301;28;20445;-79
2021/01/19 08:53:14;;;;;;;0.30;0.30;;;;;;;12.75;65.97;98175.00;5059697;28;20450;-78
2021/01/19 08:55:43;;;;;;;1.15;0.40;;;;;;;12.77;65.37;98175.75;5032757;28;20068;-79
2021/01/19 08:58:19;;;;;;;0.47;0.47;;;;;;;12.43;66.53;98170.16;5041377;28;20087;-79
2021/01/19 09:00:47;;;;;;;2.17;0.90;;;;;;;12.32;67.03;98177.59;5026723;28;20735;-79
2021/01/19 09:03:18;;;;;;;1.48;0.80;;;;;;;12.47;66.59;98174.38;5035064;28;20443;-79
2021/01/19 09:06:07;;;;;;;1.95;1.05;;;;;;;12.32;67.28;98181.06;5036545;28;20147;-79
2021/01/19 09:08:38;;;;;;;2.47;1.77;;;;;;;12.16;67.70;98178.19;4988850;28;20045;-79
2021/01/19 09:11:08;;;;;;;3.20;1.70;;;;;;;11.99;68.52;98169.25;5028497;28;20048;-80
2021/01/19 09:13:48;;;;;;;3.55;1.70;;;;;;;11.84;69.73;98165.44;5009595;28;20084;-76
2021/01/19 09:16:24;;;;;;;2.88;2.15;;;;;;;11.70;70.39;98159.84;5013731;28;21038;-79
2021/01/19 09:19:12;;;;;;;3.97;2.88;;;;;;;11.77;70.18;98156.97;5009830;28;20466;-80
2021/01/19 09:21:39;;;;;;;5.55;3.70;;;;;;;11.72;70.41;98148.41;4992881;28;20443;-80
2021/01/19 09:24:21;;;;;;;6.18;3.50;;;;;;;11.68;70.63;98141.56;5013425;28;20076;-79
2021/01/19 09:27:00;;;;;;;5.83;3.80;;;;;;;11.60;71.18;98137.53;4997264;28;20053;-77
2021/01/19 09:29:29;;;;;;;9.52;3.75;;;;;;;11.64;70.80;98145.22;5000061;28;20135;-78
2021/01/19 09:32:01;;;;;;;8.05;3.83;;;;;;;11.92;70.05;98142.47;5004857;28;21383;-79
2021/01/19 09:34:48;;;;;;;6.38;4.13;;;;;;;11.63;71.48;98143.50;4996992;28;20521;-78
2021/01/19 09:37:19;;;;;;;7.07;4.07;;;;;;;11.67;71.16;98137.25;5008295;28;20079;-79
2021/01/19 09:39:47;;;;;;;6.95;4.78;;;;;;;11.78;71.19;98135.13;4977557;28;20086;-81
2021/01/19 09:42:18;;;;;;;5.70;4.88;;;;;;;11.92;70.63;98141.59;5003984;28;20443;-79
2021/01/19 09:44:46;;;;;;;9.65;4.55;;;;;;;12.32;69.29;98144.41;4983591;28;20049;-78
2021/01/19 09:47:14;;;;;;;13.00;5.45;;;;;;;12.05;70.01;98143.69;5010903;28;20495;-78
2021/01/19 09:49:42;;;;;;;11.07;6.57;;;;;;;12.11;69.83;98129.53;5018676;28;20451;-79
2021/01/19 09:52:15;;;;;;;8.95;6.28;;;;;;;12.26;68.89;98126.31;5024314;28;20053;-79
2021/01/19 09:54:41;;;;;;;10.10;6.90;;;;;;;12.01;69.89;98129.03;5004076;28;20049;-79
2021/01/19 09:57:08;;;;;;;8.68;7.18;;;;;;;11.95;69.82;98115.31;5004478;28;20041;-79
2021/01/19 09:59:35;;;;;;;9.48;6.85;;;;;;;11.80;70.72;98107.13;4986256;28;20046;-78
2021/01/19 10:02:02;;;;;;;12.23;8.52;;;;;;;11.95;70.35;98116.16;4991425;28;20044;-80
2021/01/19 10:04:30;;;;;;;26.70;9.60;;;;;;;11.91;70.83;98111.97;5012482;28;20059;-79
2021/01/19 10:07:02;;;;;;;13.25;8.55;;;;;;;11.89;71.04;98102.47;5005217;28;20057;-80
2021/01/19 10:09:29;;;;;;;11.68;7.47;;;;;;;11.96;70.55;98104.78;5018628;28;20049;-79
2021/01/19 10:12:00;;;;;;;10.68;7.63;;;;;;;11.95;70.90;98094.38;5007322;28;20477;-79
2021/01/19 10:14:37;;;;;;;11.77;8.57;;;;;;;11.95;70.99;98095.22;5016982;28;20136;-80
2021/01/19 10:17:27;;;;;;;12.82;8.57;;;;;;;11.85;71.33;98086.00;5003067;28;20236;-79
2021/01/19 10:20:11;;;;;;;15.18;9.77;;;;;;;12.17;70.57;98095.25;5012457;28;20485;-78
2021/01/19 10:22:43;;;;;;;13.73;9.63;;;;;;;12.09;70.81;98094.69;5005261;28;20195;-78
2021/01/19 10:25:13;;;;;;;14.55;9.80;;;;;;;12.08;70.91;98098.25;5005965;28;20807;-80
2021/01/19 10:27:43;;;;;;;17.38;12.25;;;;;;;12.06;70.60;98095.66;5008192;28;20037;-79
2021/01/19 10:30:12;;;;;;;11.27;7.30;;;;;;;12.24;70.97;98087.09;5020993;28;20045;-79
2021/01/19 10:32:51;;;;;;;15.63;10.55;;;;;;;12.22;70.50;98086.31;5024963;28;20061;-79
2021/01/19 10:35:35;;;;;;;3.75;1.38;;;;;;;11.91;72.80;98077.94;5014421;28;20063;-80
2021/01/19 10:38:08;;;;;;;3.78;1.17;;;;;;;12.39;71.81;98084.78;5026854;28;20403;-78
2021/01/19 10:40:36;;;;;;;3.92;1.00;;;;;;;12.32;71.07;98072.84;5040153;28;20065;-79
2021/01/19 10:43:11;;;;;;;6.10;0.90;;;;;;;12.44;71.34;98070.59;5022997;28;20479;-80
2021/01/19 10:45:42;;;;;;;1.90;0.50;;;;;;;12.54;70.71;98071.91;5015456;28;20435;-80
2021/01/19 10:48:20;;;;;;;4.80;0.85;;;;;;;12.54;70.36;98077.16;5039939;28;20524;-78
2021/01/19 10:50:48;;;;;;;1.00;0.47;;;;;;;12.45;69.67;98066.19;5032385;28;20052;-79
2021/01/19 10:53:25;;;;;;;4.65;1.00;;;;;;;12.75;67.94;98059.69;5047195;28;20044;-80
2021/01/19 10:55:52;;;;;;;4.10;0.98;;;;;;;13.40;66.48;98056.84;5048971;28;20091;-81
2021/01/19 10:58:20;;;;;;;4.18;0.63;;;;;;;13.30;66.12;98055.56;5046164;28;20091;-80
2021/01/19 11:00:46;;;;;;;10.40;0.90;;;;;;;12.96;66.99;98055.28;5041970;28;20147;-80
2021/01/19 11:03:13;;;;;;;5.93;0.75;;;;;;;12.94;67.81;98054.53;5044538;28;20067;-81
2021/01/19 11:05:40;;;;;;;6.57;0.73;;;;;;;13.25;66.46;98057.53;5058878;28;20045;-80
2021/01/19 11:08:10;;;;;;;11.02;1.13;;;;;;;13.10;66.78;98056.41;5023943;28;20843;-79
2021/01/19 11:10:38;;;;;;;6.95;1.00;;;;;;;13.30;66.07;98070.44;5002816;28;20053;-80
2021/01/19 11:13:05;;;;;;;5.07;0.77;;;;;;;12.89;67.15;98059.09;5039258;28;20139;-78
2021/01/19 11:15:34;;;;;;;5.60;0.63;;;;;;;13.24;65.97;98063.69;5044938;28;20057;-79
2021/01/19 11:18:00;;;;;;;8.68;0.95;;;;;;;13.68;66.12;98066.09;5060121;28;21050;-80
2021/01/19 11:20:27;;;;;;;2.90;0.70;;;;;;;13.61;66.25;98065.53;5033545;28;20060;-80
2021/01/19 11:22:54;;;;;;;3.42;0.70;;;;;;;12.84;69.37;98053.22;5024942;28;20041;-80
2021/01/19 11:25:21;;;;;;;8.73;0.95;;;;;;;13.08;68.39;98060.00;5029333;28;20573;-80
2021/01/19 11:27:48;;;;;;;3.33;0.43;;;;;;;13.17;69.19;98050.94;5041269;28;20506;-78
2021/01/19 11:30:15;;;;;;;4.70;0.68;;;;;;;13.16;69.01;98046.59;5041183;28;20143;-79
2021/01/19 11:32:42;;;;;;;6.38;0.80;;;;;;;13.27;69.38;98058.31;5036123;28;20057;-80
2021/01/19 11:35:09;;;;;;;3.63;0.75;;;;;;;13.33;69.33;98039.66;5026644;28;20052;-79
2021/01/19 11:37:37;;;;;;;4.85;0.63;;;;;;;13.40;69.43;98046.34;5011244;28;20051;-78
2021/01/19 11:40:04;;;;;;;4.82;0.82;;;;;;;13.52;69.07;98045.78;5043439;28;20055;-79
2021/01/19 11:42:34;;;;;;;2.85;0.80;;;;;;;13.21;69.43;98045.47;5030839;28;20118;-80
2021/01/19 11:45:00;;;;;;;11.02;1.63;;;;;;;13.01;70.26;98048.94;5027152;28;20478;-80
2021/01/19 11:47:27;;;;;;;6.32;1.67;;;;;;;13.05;69.86;98044.41;5043340;28;20083;-80
2021/01/19 11:49:53;;;;;;;7.90;1.25;;;;;;;12.94;70.24;98039.66;5052608;28;20048;-79